sensor_id;sensor_type;location;lat;lon;timestamp;P1;durP1;ratioP1;P2;durP2;ratioP2
49235;SDS011;35067;48.134;8.378;2023-05-07T00:00:46;3.57;;;3.27;;
49235;SDS011;35067;48.134;8.378;2023-05-07T00:01:46;3.77;;;3.10;;
49235;SDS011;35067;48.134;8.378;2023-05-07T00:02:47;4.40;;;3.20;;
49235;SDS011;35067;48.134;8.378;2023-05-07T00:03:49;4.40;;;3.15;;
49235;SDS011;35067;48.134;8.378;2023-05-07T00:04:50;3.83;;;3.17;;
49235;SDS011;35067;48.134;8.378;2023-05-07T00:05:52;6.15;;;3.45;;
49235;SDS011;35067;48.134;8.378;2023-05-07T00:06:55;5.32;;;3.53;;
49235;SDS011;35067;48.134;8.378;2023-05-07T00:07:56;5.80;;;3.30;;
49235;SDS011;35067;48.134;8.378;2023-05-07T00:08:57;5.83;;;3.00;;
49235;SDS011;35067;48.134;8.378;2023-05-07T00:09:58;3.83;;;2.90;;
49235;SDS011;35067;48.134;8.378;2023-05-07T00:10:59;5.47;;;2.80;;
49235;SDS011;35067;48.134;8.378;2023-05-07T00:11:59;3.13;;;2.60;;
49235;SDS011;35067;48.134;8.378;2023-05-07T00:13:01;4.15;;;3.00;;
49235;SDS011;35067;48.134;8.378;2023-05-07T00:14:01;4.53;;;3.17;;
49235;SDS011;35067;48.134;8.378;2023-05-07T00:15:02;3.07;;;2.77;;
49235;SDS011;35067;48.134;8.378;2023-05-07T00:16:04;3.83;;;2.90;;
49235;SDS011;35067;48.134;8.378;2023-05-07T00:17:05;6.38;;;2.90;;
49235;SDS011;35067;48.134;8.378;2023-05-07T00:18:06;7.60;;;2.90;;
49235;SDS011;35067;48.134;8.378;2023-05-07T00:19:06;4.90;;;2.87;;
49235;SDS011;35067;48.134;8.378;2023-05-07T00:20:07;4.13;;;2.80;;
49235;SDS011;35067;48.134;8.378;2023-05-07T00:21:08;6.40;;;3.22;;
49235;SDS011;35067;48.134;8.378;2023-05-07T00:22:09;4.37;;;2.70;;
49235;SDS011;35067;48.134;8.378;2023-05-07T00:23:10;5.33;;;3.00;;
49235;SDS011;35067;48.134;8.378;2023-05-07T00:24:10;6.57;;;2.93;;
49235;SDS011;35067;48.134;8.378;2023-05-07T00:25:11;3.80;;;2.90;;
49235;SDS011;35067;48.134;8.378;2023-05-07T00:26:12;6.27;;;2.60;;
49235;SDS011;35067;48.134;8.378;2023-05-07T00:27:13;4.87;;;3.23;;
49235;SDS011;35067;48.134;8.378;2023-05-07T00:28:13;6.20;;;3.20;;
49235;SDS011;35067;48.134;8.378;2023-05-07T00:29:14;5.20;;;2.90;;
49235;SDS011;35067;48.134;8.378;2023-05-07T00:30:15;6.10;;;3.20;;
49235;SDS011;35067;48.134;8.378;2023-05-07T00:31:16;3.67;;;3.20;;
49235;SDS011;35067;48.134;8.378;2023-05-07T00:32:16;4.27;;;3.30;;
49235;SDS011;35067;48.134;8.378;2023-05-07T00:33:17;4.33;;;3.10;;
49235;SDS011;35067;48.134;8.378;2023-05-07T00:34:18;3.20;;;2.90;;
49235;SDS011;35067;48.134;8.378;2023-05-07T00:35:20;5.45;;;3.03;;
49235;SDS011;35067;48.134;8.378;2023-05-07T00:36:20;5.03;;;3.00;;
49235;SDS011;35067;48.134;8.378;2023-05-07T00:37:21;3.23;;;2.70;;
49235;SDS011;35067;48.134;8.378;2023-05-07T00:38:22;4.17;;;2.90;;
49235;SDS011;35067;48.134;8.378;2023-05-07T00:39:22;4.30;;;3.10;;
49235;SDS011;35067;48.134;8.378;2023-05-07T00:40:23;4.50;;;2.93;;
49235;SDS011;35067;48.134;8.378;2023-05-07T00:41:24;3.90;;;2.78;;
49235;SDS011;35067;48.134;8.378;2023-05-07T00:42:25;4.87;;;2.93;;
49235;SDS011;35067;48.134;8.378;2023-05-07T00:43:26;4.90;;;3.17;;
49235;SDS011;35067;48.134;8.378;2023-05-07T00:44:27;3.55;;;2.63;;
49235;SDS011;35067;48.134;8.378;2023-05-07T00:45:28;3.83;;;2.85;;
49235;SDS011;35067;48.134;8.378;2023-05-07T00:46:29;5.60;;;2.88;;
49235;SDS011;35067;48.134;8.378;2023-05-07T00:47:31;4.20;;;2.90;;
49235;SDS011;35067;48.134;8.378;2023-05-07T00:48:31;4.20;;;3.30;;
49235;SDS011;35067;48.134;8.378;2023-05-07T00:49:39;4.87;;;3.00;;
49235;SDS011;35067;48.134;8.378;2023-05-07T00:50:42;5.40;;;3.10;;
49235;SDS011;35067;48.134;8.378;2023-05-07T00:51:44;3.58;;;2.97;;
49235;SDS011;35067;48.134;8.378;2023-05-07T00:52:45;3.22;;;2.60;;
49235;SDS011;35067;48.134;8.378;2023-05-07T00:53:46;8.27;;;2.80;;
49235;SDS011;35067;48.134;8.378;2023-05-07T00:54:48;4.82;;;3.10;;
49235;SDS011;35067;48.134;8.378;2023-05-07T00:55:48;5.90;;;2.80;;
49235;SDS011;35067;48.134;8.378;2023-05-07T00:56:49;5.00;;;3.70;;
49235;SDS011;35067;48.134;8.378;2023-05-07T00:57:50;4.40;;;3.30;;
49235;SDS011;35067;48.134;8.378;2023-05-07T00:58:52;4.07;;;3.38;;
49235;SDS011;35067;48.134;8.378;2023-05-07T00:59:53;3.77;;;3.13;;
49235;SDS011;35067;48.134;8.378;2023-05-07T01:00:53;6.03;;;3.63;;
49235;SDS011;35067;48.134;8.378;2023-05-07T01:01:54;4.90;;;3.00;;
49235;SDS011;35067;48.134;8.378;2023-05-07T01:02:55;3.87;;;3.10;;
49235;SDS011;35067;48.134;8.378;2023-05-07T01:03:56;6.40;;;2.95;;
49235;SDS011;35067;48.134;8.378;2023-05-07T01:04:57;3.55;;;2.92;;
49235;SDS011;35067;48.134;8.378;2023-05-07T01:05:58;4.17;;;3.10;;
49235;SDS011;35067;48.134;8.378;2023-05-07T01:07:00;4.03;;;3.25;;
49235;SDS011;35067;48.134;8.378;2023-05-07T01:08:02;3.17;;;2.65;;
49235;SDS011;35067;48.134;8.378;2023-05-07T01:09:05;5.78;;;2.92;;
49235;SDS011;35067;48.134;8.378;2023-05-07T01:10:06;4.23;;;3.23;;
49235;SDS011;35067;48.134;8.378;2023-05-07T01:11:08;3.40;;;2.72;;
49235;SDS011;35067;48.134;8.378;2023-05-07T01:12:10;5.00;;;3.22;;
49235;SDS011;35067;48.134;8.378;2023-05-07T01:13:11;3.70;;;3.20;;
49235;SDS011;35067;48.134;8.378;2023-05-07T01:14:14;4.20;;;3.20;;
49235;SDS011;35067;48.134;8.378;2023-05-07T01:15:14;4.00;;;3.10;;
49235;SDS011;35067;48.134;8.378;2023-05-07T01:16:16;6.22;;;3.15;;
49235;SDS011;35067;48.134;8.378;2023-05-07T01:17:17;4.70;;;3.87;;
49235;SDS011;35067;48.134;8.378;2023-05-07T01:18:18;5.70;;;3.60;;
49235;SDS011;35067;48.134;8.378;2023-05-07T01:19:18;4.13;;;2.63;;
49235;SDS011;35067;48.134;8.378;2023-05-07T01:20:19;4.17;;;3.10;;
49235;SDS011;35067;48.134;8.378;2023-05-07T01:21:22;3.53;;;3.00;;
49235;SDS011;35067;48.134;8.378;2023-05-07T01:22:30;4.25;;;3.33;;
49235;SDS011;35067;48.134;8.378;2023-05-07T01:23:39;3.88;;;3.30;;
49235;SDS011;35067;48.134;8.378;2023-05-07T01:24:40;6.20;;;3.10;;
49235;SDS011;35067;48.134;8.378;2023-05-07T01:25:42;7.88;;;4.00;;
49235;SDS011;35067;48.134;8.378;2023-05-07T01:26:43;4.87;;;3.30;;
49235;SDS011;35067;48.134;8.378;2023-05-07T01:27:44;3.42;;;2.90;;
49235;SDS011;35067;48.134;8.378;2023-05-07T01:28:45;4.15;;;2.95;;
49235;SDS011;35067;48.134;8.378;2023-05-07T01:29:46;4.20;;;3.00;;
49235;SDS011;35067;48.134;8.378;2023-05-07T01:30:49;3.93;;;3.00;;
49235;SDS011;35067;48.134;8.378;2023-05-07T01:31:59;5.85;;;3.42;;
49235;SDS011;35067;48.134;8.378;2023-05-07T01:33:02;4.70;;;3.00;;
49235;SDS011;35067;48.134;8.378;2023-05-07T01:34:09;6.32;;;3.58;;
49235;SDS011;35067;48.134;8.378;2023-05-07T01:35:14;6.07;;;3.15;;
49235;SDS011;35067;48.134;8.378;2023-05-07T01:36:20;3.50;;;2.88;;
49235;SDS011;35067;48.134;8.378;2023-05-07T01:37:25;7.07;;;5.40;;
49235;SDS011;35067;48.134;8.378;2023-05-07T01:38:27;3.45;;;3.10;;
49235;SDS011;35067;48.134;8.378;2023-05-07T01:39:28;4.43;;;3.47;;
49235;SDS011;35067;48.134;8.378;2023-05-07T01:40:30;5.20;;;3.15;;
49235;SDS011;35067;48.134;8.378;2023-05-07T01:41:30;4.23;;;3.30;;
49235;SDS011;35067;48.134;8.378;2023-05-07T01:42:31;6.00;;;3.50;;
49235;SDS011;35067;48.134;8.378;2023-05-07T01:43:32;4.63;;;3.20;;
49235;SDS011;35067;48.134;8.378;2023-05-07T01:44:33;3.55;;;3.13;;
49235;SDS011;35067;48.134;8.378;2023-05-07T01:45:34;3.80;;;3.00;;
49235;SDS011;35067;48.134;8.378;2023-05-07T01:46:36;4.07;;;3.10;;
49235;SDS011;35067;48.134;8.378;2023-05-07T01:47:37;3.30;;;2.97;;
49235;SDS011;35067;48.134;8.378;2023-05-07T01:48:38;4.95;;;3.00;;
49235;SDS011;35067;48.134;8.378;2023-05-07T01:49:39;7.63;;;3.30;;
49235;SDS011;35067;48.134;8.378;2023-05-07T01:50:42;4.50;;;3.10;;
49235;SDS011;35067;48.134;8.378;2023-05-07T01:51:44;3.15;;;2.85;;
49235;SDS011;35067;48.134;8.378;2023-05-07T01:52:45;3.97;;;3.10;;
49235;SDS011;35067;48.134;8.378;2023-05-07T01:53:47;5.10;;;3.92;;
49235;SDS011;35067;48.134;8.378;2023-05-07T01:54:50;4.32;;;3.05;;
49235;SDS011;35067;48.134;8.378;2023-05-07T01:55:51;6.47;;;3.50;;
49235;SDS011;35067;48.134;8.378;2023-05-07T01:56:52;3.63;;;3.13;;
49235;SDS011;35067;48.134;8.378;2023-05-07T01:57:52;4.93;;;3.20;;
49235;SDS011;35067;48.134;8.378;2023-05-07T01:58:53;4.23;;;3.47;;
49235;SDS011;35067;48.134;8.378;2023-05-07T01:59:54;6.93;;;3.23;;
49235;SDS011;35067;48.134;8.378;2023-05-07T02:00:54;4.80;;;3.17;;
49235;SDS011;35067;48.134;8.378;2023-05-07T02:01:55;7.55;;;3.70;;
49235;SDS011;35067;48.134;8.378;2023-05-07T02:02:56;3.70;;;3.10;;
49235;SDS011;35067;48.134;8.378;2023-05-07T02:03:57;3.40;;;3.10;;
49235;SDS011;35067;48.134;8.378;2023-05-07T02:04:58;4.97;;;3.03;;
49235;SDS011;35067;48.134;8.378;2023-05-07T02:06:00;4.03;;;3.50;;
49235;SDS011;35067;48.134;8.378;2023-05-07T02:07:01;4.30;;;3.20;;
49235;SDS011;35067;48.134;8.378;2023-05-07T02:08:02;5.77;;;3.97;;
49235;SDS011;35067;48.134;8.378;2023-05-07T02:09:02;4.00;;;3.03;;
49235;SDS011;35067;48.134;8.378;2023-05-07T02:10:03;3.13;;;2.80;;
49235;SDS011;35067;48.134;8.378;2023-05-07T02:11:05;4.07;;;3.08;;
49235;SDS011;35067;48.134;8.378;2023-05-07T02:12:05;5.67;;;3.47;;
49235;SDS011;35067;48.134;8.378;2023-05-07T02:13:06;3.87;;;2.93;;
49235;SDS011;35067;48.134;8.378;2023-05-07T02:14:07;4.13;;;3.50;;
49235;SDS011;35067;48.134;8.378;2023-05-07T02:15:07;4.37;;;3.53;;
49235;SDS011;35067;48.134;8.378;2023-05-07T02:16:09;4.88;;;3.50;;
49235;SDS011;35067;48.134;8.378;2023-05-07T02:17:10;3.75;;;3.38;;
49235;SDS011;35067;48.134;8.378;2023-05-07T02:18:11;5.33;;;3.70;;
49235;SDS011;35067;48.134;8.378;2023-05-07T02:19:11;3.70;;;3.30;;
49235;SDS011;35067;48.134;8.378;2023-05-07T02:20:12;4.00;;;3.17;;
49235;SDS011;35067;48.134;8.378;2023-05-07T02:21:13;4.40;;;3.30;;
49235;SDS011;35067;48.134;8.378;2023-05-07T02:22:14;4.13;;;3.70;;
49235;SDS011;35067;48.134;8.378;2023-05-07T02:23:15;4.80;;;3.30;;
49235;SDS011;35067;48.134;8.378;2023-05-07T02:24:16;5.47;;;3.43;;
49235;SDS011;35067;48.134;8.378;2023-05-07T02:25:16;5.13;;;3.77;;
49235;SDS011;35067;48.134;8.378;2023-05-07T02:26:17;5.50;;;3.57;;
49235;SDS011;35067;48.134;8.378;2023-05-07T02:27:18;3.42;;;3.00;;
49235;SDS011;35067;48.134;8.378;2023-05-07T02:28:19;4.67;;;3.43;;
49235;SDS011;35067;48.134;8.378;2023-05-07T02:29:19;6.03;;;3.50;;
49235;SDS011;35067;48.134;8.378;2023-05-07T02:30:20;5.27;;;3.80;;
49235;SDS011;35067;48.134;8.378;2023-05-07T02:31:24;5.97;;;3.15;;
49235;SDS011;35067;48.134;8.378;2023-05-07T02:32:25;3.33;;;3.00;;
49235;SDS011;35067;48.134;8.378;2023-05-07T02:33:26;5.33;;;3.77;;
49235;SDS011;35067;48.134;8.378;2023-05-07T02:34:26;7.47;;;4.03;;
49235;SDS011;35067;48.134;8.378;2023-05-07T02:35:27;5.53;;;3.43;;
49235;SDS011;35067;48.134;8.378;2023-05-07T02:36:28;4.57;;;3.50;;
49235;SDS011;35067;48.134;8.378;2023-05-07T02:37:28;5.23;;;3.37;;
49235;SDS011;35067;48.134;8.378;2023-05-07T02:38:29;5.30;;;3.87;;
49235;SDS011;35067;48.134;8.378;2023-05-07T02:39:30;4.67;;;3.43;;
49235;SDS011;35067;48.134;8.378;2023-05-07T02:40:31;4.20;;;3.60;;
49235;SDS011;35067;48.134;8.378;2023-05-07T02:41:33;8.95;;;4.10;;
49235;SDS011;35067;48.134;8.378;2023-05-07T02:42:34;4.72;;;4.22;;
49235;SDS011;35067;48.134;8.378;2023-05-07T02:43:35;3.93;;;3.20;;
49235;SDS011;35067;48.134;8.378;2023-05-07T02:44:36;8.68;;;3.75;;
49235;SDS011;35067;48.134;8.378;2023-05-07T02:45:37;4.87;;;4.30;;
49235;SDS011;35067;48.134;8.378;2023-05-07T02:46:37;6.33;;;4.00;;
49235;SDS011;35067;48.134;8.378;2023-05-07T02:47:38;5.77;;;4.17;;
49235;SDS011;35067;48.134;8.378;2023-05-07T02:48:39;5.27;;;3.90;;
49235;SDS011;35067;48.134;8.378;2023-05-07T02:49:39;4.57;;;3.27;;
49235;SDS011;35067;48.134;8.378;2023-05-07T02:50:40;4.13;;;3.17;;
49235;SDS011;35067;48.134;8.378;2023-05-07T02:51:41;5.70;;;4.60;;
49235;SDS011;35067;48.134;8.378;2023-05-07T02:52:41;5.07;;;4.57;;
49235;SDS011;35067;48.134;8.378;2023-05-07T02:53:42;7.43;;;4.93;;
49235;SDS011;35067;48.134;8.378;2023-05-07T02:54:43;6.97;;;4.23;;
49235;SDS011;35067;48.134;8.378;2023-05-07T02:55:43;5.23;;;4.13;;
49235;SDS011;35067;48.134;8.378;2023-05-07T02:56:44;7.93;;;4.47;;
49235;SDS011;35067;48.134;8.378;2023-05-07T02:57:45;8.20;;;4.37;;
49235;SDS011;35067;48.134;8.378;2023-05-07T02:58:45;6.57;;;5.13;;
49235;SDS011;35067;48.134;8.378;2023-05-07T02:59:46;6.60;;;4.10;;
49235;SDS011;35067;48.134;8.378;2023-05-07T03:00:47;6.47;;;4.50;;
49235;SDS011;35067;48.134;8.378;2023-05-07T03:01:47;6.43;;;4.13;;
49235;SDS011;35067;48.134;8.378;2023-05-07T03:02:48;7.60;;;4.50;;
49235;SDS011;35067;48.134;8.378;2023-05-07T03:03:49;5.37;;;4.20;;
49235;SDS011;35067;48.134;8.378;2023-05-07T03:04:49;4.13;;;3.70;;
49235;SDS011;35067;48.134;8.378;2023-05-07T03:05:50;5.50;;;4.27;;
49235;SDS011;35067;48.134;8.378;2023-05-07T03:06:51;7.27;;;4.00;;
49235;SDS011;35067;48.134;8.378;2023-05-07T03:07:52;4.60;;;3.63;;
49235;SDS011;35067;48.134;8.378;2023-05-07T03:08:52;6.20;;;4.00;;
49235;SDS011;35067;48.134;8.378;2023-05-07T03:09:53;4.70;;;3.87;;
49235;SDS011;35067;48.134;8.378;2023-05-07T03:10:54;5.30;;;3.83;;
49235;SDS011;35067;48.134;8.378;2023-05-07T03:11:55;6.10;;;3.70;;
49235;SDS011;35067;48.134;8.378;2023-05-07T03:12:57;5.90;;;3.80;;
49235;SDS011;35067;48.134;8.378;2023-05-07T03:13:57;5.10;;;3.73;;
49235;SDS011;35067;48.134;8.378;2023-05-07T03:14:58;4.23;;;3.70;;
49235;SDS011;35067;48.134;8.378;2023-05-07T03:15:59;4.70;;;3.50;;
49235;SDS011;35067;48.134;8.378;2023-05-07T03:16:59;6.97;;;3.80;;
49235;SDS011;35067;48.134;8.378;2023-05-07T03:18:00;3.87;;;3.30;;
49235;SDS011;35067;48.134;8.378;2023-05-07T03:19:01;3.70;;;3.30;;
49235;SDS011;35067;48.134;8.378;2023-05-07T03:20:02;5.63;;;3.60;;
49235;SDS011;35067;48.134;8.378;2023-05-07T03:21:03;3.97;;;3.55;;
49235;SDS011;35067;48.134;8.378;2023-05-07T03:22:04;7.33;;;3.57;;
49235;SDS011;35067;48.134;8.378;2023-05-07T03:23:05;4.70;;;3.87;;
49235;SDS011;35067;48.134;8.378;2023-05-07T03:24:05;4.13;;;3.47;;
49235;SDS011;35067;48.134;8.378;2023-05-07T03:25:06;7.00;;;4.50;;
49235;SDS011;35067;48.134;8.378;2023-05-07T03:26:08;5.75;;;3.33;;
49235;SDS011;35067;48.134;8.378;2023-05-07T03:27:09;5.77;;;4.00;;
49235;SDS011;35067;48.134;8.378;2023-05-07T03:28:10;5.27;;;3.47;;
49235;SDS011;35067;48.134;8.378;2023-05-07T03:29:10;4.23;;;3.30;;
49235;SDS011;35067;48.134;8.378;2023-05-07T03:30:11;5.17;;;3.57;;
49235;SDS011;35067;48.134;8.378;2023-05-07T03:31:12;4.55;;;3.70;;
49235;SDS011;35067;48.134;8.378;2023-05-07T03:32:13;8.03;;;3.80;;
49235;SDS011;35067;48.134;8.378;2023-05-07T03:33:14;5.20;;;4.20;;
49235;SDS011;35067;48.134;8.378;2023-05-07T03:34:15;4.87;;;3.40;;
49235;SDS011;35067;48.134;8.378;2023-05-07T03:35:21;5.25;;;4.28;;
49235;SDS011;35067;48.134;8.378;2023-05-07T03:36:22;4.80;;;4.00;;
49235;SDS011;35067;48.134;8.378;2023-05-07T03:37:24;6.93;;;4.20;;
49235;SDS011;35067;48.134;8.378;2023-05-07T03:38:24;5.47;;;3.70;;
49235;SDS011;35067;48.134;8.378;2023-05-07T03:39:25;4.83;;;3.53;;
49235;SDS011;35067;48.134;8.378;2023-05-07T03:40:27;4.57;;;3.10;;
49235;SDS011;35067;48.134;8.378;2023-05-07T03:41:28;3.67;;;3.20;;
49235;SDS011;35067;48.134;8.378;2023-05-07T03:42:29;5.85;;;3.50;;
49235;SDS011;35067;48.134;8.378;2023-05-07T03:43:30;3.97;;;3.33;;
49235;SDS011;35067;48.134;8.378;2023-05-07T03:44:31;4.97;;;3.50;;
49235;SDS011;35067;48.134;8.378;2023-05-07T03:45:31;4.70;;;3.80;;
49235;SDS011;35067;48.134;8.378;2023-05-07T03:46:32;4.57;;;3.50;;
49235;SDS011;35067;48.134;8.378;2023-05-07T03:47:34;6.82;;;3.88;;
49235;SDS011;35067;48.134;8.378;2023-05-07T03:48:34;7.57;;;3.97;;
49235;SDS011;35067;48.134;8.378;2023-05-07T03:49:35;4.07;;;3.53;;
49235;SDS011;35067;48.134;8.378;2023-05-07T03:50:37;5.50;;;3.47;;
49235;SDS011;35067;48.134;8.378;2023-05-07T03:51:38;4.43;;;3.58;;
49235;SDS011;35067;48.134;8.378;2023-05-07T03:52:38;4.10;;;3.70;;
49235;SDS011;35067;48.134;8.378;2023-05-07T03:53:39;4.20;;;3.43;;
49235;SDS011;35067;48.134;8.378;2023-05-07T03:54:40;7.57;;;4.13;;
49235;SDS011;35067;48.134;8.378;2023-05-07T03:55:41;5.77;;;3.70;;
49235;SDS011;35067;48.134;8.378;2023-05-07T03:56:41;5.07;;;3.60;;
49235;SDS011;35067;48.134;8.378;2023-05-07T03:57:42;8.33;;;4.10;;
49235;SDS011;35067;48.134;8.378;2023-05-07T03:58:43;7.00;;;4.10;;
49235;SDS011;35067;48.134;8.378;2023-05-07T03:59:43;4.40;;;3.77;;
49235;SDS011;35067;48.134;8.378;2023-05-07T04:00:44;3.83;;;3.07;;
49235;SDS011;35067;48.134;8.378;2023-05-07T04:01:45;4.38;;;3.97;;
49235;SDS011;35067;48.134;8.378;2023-05-07T04:02:46;4.83;;;4.07;;
49235;SDS011;35067;48.134;8.378;2023-05-07T04:03:46;6.37;;;4.40;;
49235;SDS011;35067;48.134;8.378;2023-05-07T04:04:48;6.90;;;4.20;;
49235;SDS011;35067;48.134;8.378;2023-05-07T04:05:49;4.60;;;3.92;;
49235;SDS011;35067;48.134;8.378;2023-05-07T04:06:50;6.70;;;4.03;;
49235;SDS011;35067;48.134;8.378;2023-05-07T04:07:51;6.15;;;4.60;;
49235;SDS011;35067;48.134;8.378;2023-05-07T04:08:52;7.60;;;4.50;;
49235;SDS011;35067;48.134;8.378;2023-05-07T04:09:52;4.50;;;4.10;;
49235;SDS011;35067;48.134;8.378;2023-05-07T04:10:56;6.97;;;4.43;;
49235;SDS011;35067;48.134;8.378;2023-05-07T04:11:58;7.65;;;4.63;;
49235;SDS011;35067;48.134;8.378;2023-05-07T04:12:58;5.07;;;4.23;;
49235;SDS011;35067;48.134;8.378;2023-05-07T04:13:59;4.50;;;3.93;;
49235;SDS011;35067;48.134;8.378;2023-05-07T04:15:00;5.40;;;3.97;;
49235;SDS011;35067;48.134;8.378;2023-05-07T04:16:01;4.83;;;4.33;;
49235;SDS011;35067;48.134;8.378;2023-05-07T04:17:03;4.70;;;4.15;;
49235;SDS011;35067;48.134;8.378;2023-05-07T04:18:05;4.80;;;3.92;;
49235;SDS011;35067;48.134;8.378;2023-05-07T04:19:06;5.20;;;4.20;;
49235;SDS011;35067;48.134;8.378;2023-05-07T04:20:10;5.10;;;4.30;;
49235;SDS011;35067;48.134;8.378;2023-05-07T04:21:18;5.43;;;4.10;;
49235;SDS011;35067;48.134;8.378;2023-05-07T04:22:20;4.43;;;3.45;;
49235;SDS011;35067;48.134;8.378;2023-05-07T04:23:21;6.63;;;3.87;;
49235;SDS011;35067;48.134;8.378;2023-05-07T04:24:21;6.13;;;3.50;;
49235;SDS011;35067;48.134;8.378;2023-05-07T04:25:22;4.47;;;3.80;;
49235;SDS011;35067;48.134;8.378;2023-05-07T04:26:26;4.20;;;3.65;;
49235;SDS011;35067;48.134;8.378;2023-05-07T04:27:27;5.75;;;3.92;;
49235;SDS011;35067;48.134;8.378;2023-05-07T04:28:28;4.90;;;3.80;;
49235;SDS011;35067;48.134;8.378;2023-05-07T04:29:28;4.93;;;3.77;;
49235;SDS011;35067;48.134;8.378;2023-05-07T04:30:29;8.97;;;4.50;;
49235;SDS011;35067;48.134;8.378;2023-05-07T04:31:30;4.70;;;3.73;;
49235;SDS011;35067;48.134;8.378;2023-05-07T04:32:31;3.60;;;3.30;;
49235;SDS011;35067;48.134;8.378;2023-05-07T04:33:32;4.37;;;3.83;;
49235;SDS011;35067;48.134;8.378;2023-05-07T04:34:33;4.25;;;3.85;;
49235;SDS011;35067;48.134;8.378;2023-05-07T04:35:34;4.97;;;3.67;;
49235;SDS011;35067;48.134;8.378;2023-05-07T04:36:35;5.53;;;3.85;;
49235;SDS011;35067;48.134;8.378;2023-05-07T04:37:38;7.18;;;4.22;;
49235;SDS011;35067;48.134;8.378;2023-05-07T04:38:38;5.37;;;3.73;;
49235;SDS011;35067;48.134;8.378;2023-05-07T04:39:39;7.93;;;3.73;;
49235;SDS011;35067;48.134;8.378;2023-05-07T04:40:40;5.13;;;4.00;;
49235;SDS011;35067;48.134;8.378;2023-05-07T04:41:41;4.17;;;3.40;;
49235;SDS011;35067;48.134;8.378;2023-05-07T04:42:41;3.73;;;3.30;;
49235;SDS011;35067;48.134;8.378;2023-05-07T04:43:42;6.33;;;4.73;;
49235;SDS011;35067;48.134;8.378;2023-05-07T04:44:43;5.67;;;4.37;;
49235;SDS011;35067;48.134;8.378;2023-05-07T04:45:45;5.78;;;4.20;;
49235;SDS011;35067;48.134;8.378;2023-05-07T04:46:45;4.93;;;4.40;;
49235;SDS011;35067;48.134;8.378;2023-05-07T04:47:46;6.53;;;4.93;;
49235;SDS011;35067;48.134;8.378;2023-05-07T04:48:47;6.50;;;4.63;;
49235;SDS011;35067;48.134;8.378;2023-05-07T04:49:48;6.10;;;4.47;;
49235;SDS011;35067;48.134;8.378;2023-05-07T04:50:49;6.50;;;4.13;;
49235;SDS011;35067;48.134;8.378;2023-05-07T04:51:50;6.88;;;5.30;;
49235;SDS011;35067;48.134;8.378;2023-05-07T04:52:51;5.70;;;4.47;;
49235;SDS011;35067;48.134;8.378;2023-05-07T04:53:51;6.30;;;4.60;;
49235;SDS011;35067;48.134;8.378;2023-05-07T04:54:52;7.80;;;4.07;;
49235;SDS011;35067;48.134;8.378;2023-05-07T04:55:56;6.33;;;4.10;;
49235;SDS011;35067;48.134;8.378;2023-05-07T04:56:57;4.55;;;3.90;;
49235;SDS011;35067;48.134;8.378;2023-05-07T04:57:58;5.97;;;4.20;;
49235;SDS011;35067;48.134;8.378;2023-05-07T04:59:01;5.80;;;3.55;;
49235;SDS011;35067;48.134;8.378;2023-05-07T05:00:02;3.43;;;3.13;;
49235;SDS011;35067;48.134;8.378;2023-05-07T05:01:04;6.43;;;3.80;;
49235;SDS011;35067;48.134;8.378;2023-05-07T05:02:05;5.07;;;3.40;;
49235;SDS011;35067;48.134;8.378;2023-05-07T05:03:06;3.60;;;2.87;;
49235;SDS011;35067;48.134;8.378;2023-05-07T05:04:07;5.03;;;3.55;;
49235;SDS011;35067;48.134;8.378;2023-05-07T05:05:07;4.60;;;3.50;;
49235;SDS011;35067;48.134;8.378;2023-05-07T05:06:08;6.70;;;3.30;;
49235;SDS011;35067;48.134;8.378;2023-05-07T05:07:09;4.28;;;3.63;;
49235;SDS011;35067;48.134;8.378;2023-05-07T05:08:10;4.70;;;4.03;;
49235;SDS011;35067;48.134;8.378;2023-05-07T05:09:11;5.70;;;4.17;;
49235;SDS011;35067;48.134;8.378;2023-05-07T05:10:11;4.87;;;3.47;;
49235;SDS011;35067;48.134;8.378;2023-05-07T05:11:12;6.83;;;4.23;;
49235;SDS011;35067;48.134;8.378;2023-05-07T05:12:13;6.17;;;4.33;;
49235;SDS011;35067;48.134;8.378;2023-05-07T05:13:14;5.20;;;4.23;;
49235;SDS011;35067;48.134;8.378;2023-05-07T05:14:14;5.27;;;3.73;;
49235;SDS011;35067;48.134;8.378;2023-05-07T05:15:15;4.03;;;3.63;;
49235;SDS011;35067;48.134;8.378;2023-05-07T05:16:16;4.73;;;3.97;;
49235;SDS011;35067;48.134;8.378;2023-05-07T05:17:16;4.67;;;3.30;;
49235;SDS011;35067;48.134;8.378;2023-05-07T05:18:17;4.20;;;3.63;;
49235;SDS011;35067;48.134;8.378;2023-05-07T05:19:18;6.07;;;4.50;;
49235;SDS011;35067;48.134;8.378;2023-05-07T05:20:20;5.88;;;4.20;;
49235;SDS011;35067;48.134;8.378;2023-05-07T05:21:21;4.60;;;3.87;;
49235;SDS011;35067;48.134;8.378;2023-05-07T05:22:21;4.70;;;3.50;;
49235;SDS011;35067;48.134;8.378;2023-05-07T05:23:22;3.83;;;3.20;;
49235;SDS011;35067;48.134;8.378;2023-05-07T05:24:23;4.97;;;3.40;;
49235;SDS011;35067;48.134;8.378;2023-05-07T05:25:23;4.03;;;3.27;;
49235;SDS011;35067;48.134;8.378;2023-05-07T05:26:24;3.53;;;3.10;;
49235;SDS011;35067;48.134;8.378;2023-05-07T05:27:25;5.00;;;3.60;;
49235;SDS011;35067;48.134;8.378;2023-05-07T05:28:26;4.03;;;3.33;;
49235;SDS011;35067;48.134;8.378;2023-05-07T05:29:27;5.93;;;3.50;;
49235;SDS011;35067;48.134;8.378;2023-05-07T05:30:28;3.67;;;3.37;;
49235;SDS011;35067;48.134;8.378;2023-05-07T05:31:29;4.10;;;3.50;;
49235;SDS011;35067;48.134;8.378;2023-05-07T05:32:30;4.83;;;3.67;;
49235;SDS011;35067;48.134;8.378;2023-05-07T05:33:30;4.30;;;3.33;;
49235;SDS011;35067;48.134;8.378;2023-05-07T05:34:31;4.40;;;3.37;;
49235;SDS011;35067;48.134;8.378;2023-05-07T05:35:33;4.65;;;3.70;;
49235;SDS011;35067;48.134;8.378;2023-05-07T05:36:34;4.03;;;3.38;;
49235;SDS011;35067;48.134;8.378;2023-05-07T05:37:35;4.80;;;4.20;;
49235;SDS011;35067;48.134;8.378;2023-05-07T05:38:36;5.73;;;3.83;;
49235;SDS011;35067;48.134;8.378;2023-05-07T05:39:37;6.67;;;3.90;;
49235;SDS011;35067;48.134;8.378;2023-05-07T05:40:37;4.93;;;4.07;;
49235;SDS011;35067;48.134;8.378;2023-05-07T05:41:38;4.47;;;4.00;;
49235;SDS011;35067;48.134;8.378;2023-05-07T05:42:39;5.63;;;4.03;;
49235;SDS011;35067;48.134;8.378;2023-05-07T05:43:39;6.63;;;4.33;;
49235;SDS011;35067;48.134;8.378;2023-05-07T05:44:40;7.37;;;4.70;;
49235;SDS011;35067;48.134;8.378;2023-05-07T05:45:41;4.63;;;4.13;;
49235;SDS011;35067;48.134;8.378;2023-05-07T05:46:42;4.13;;;3.70;;
49235;SDS011;35067;48.134;8.378;2023-05-07T05:47:42;6.43;;;4.53;;
49235;SDS011;35067;48.134;8.378;2023-05-07T05:48:43;5.40;;;4.30;;
49235;SDS011;35067;48.134;8.378;2023-05-07T05:49:44;5.73;;;3.87;;
49235;SDS011;35067;48.134;8.378;2023-05-07T05:50:44;5.07;;;3.67;;
49235;SDS011;35067;48.134;8.378;2023-05-07T05:51:45;5.13;;;4.17;;
49235;SDS011;35067;48.134;8.378;2023-05-07T05:52:46;8.10;;;4.87;;
49235;SDS011;35067;48.134;8.378;2023-05-07T05:53:46;5.70;;;4.03;;
49235;SDS011;35067;48.134;8.378;2023-05-07T05:54:47;4.93;;;3.87;;
49235;SDS011;35067;48.134;8.378;2023-05-07T05:55:49;6.03;;;3.97;;
49235;SDS011;35067;48.134;8.378;2023-05-07T05:56:50;4.10;;;3.65;;
49235;SDS011;35067;48.134;8.378;2023-05-07T05:57:50;6.00;;;3.83;;
49235;SDS011;35067;48.134;8.378;2023-05-07T05:58:51;4.70;;;3.50;;
49235;SDS011;35067;48.134;8.378;2023-05-07T05:59:52;5.93;;;3.60;;
49235;SDS011;35067;48.134;8.378;2023-05-07T06:00:53;4.33;;;3.60;;
49235;SDS011;35067;48.134;8.378;2023-05-07T06:01:53;4.13;;;3.73;;
49235;SDS011;35067;48.134;8.378;2023-05-07T06:02:54;6.37;;;3.93;;
49235;SDS011;35067;48.134;8.378;2023-05-07T06:03:55;5.37;;;3.87;;
49235;SDS011;35067;48.134;8.378;2023-05-07T06:04:56;4.43;;;3.83;;
49235;SDS011;35067;48.134;8.378;2023-05-07T06:05:57;4.07;;;3.47;;
49235;SDS011;35067;48.134;8.378;2023-05-07T06:06:58;5.30;;;3.57;;
49235;SDS011;35067;48.134;8.378;2023-05-07T06:07:58;5.20;;;3.83;;
49235;SDS011;35067;48.134;8.378;2023-05-07T06:08:59;4.63;;;3.77;;